Time;durP1;ratioP1;P1;durP2;ratioP2;P2;SDS_P1;SDS_P2;PMS_P1;PMS_P2;Temp;Humidity;BMP_temperature;BMP_pressure;BME280_temperature;BME280_humidity;BME280_pressure;Samples;Min_cycle;Max_cycle;Signal;HPM_P1;HPM_P2
2021/07/27 00:01:18;;;;;;;13.32;5.55;;;;;;;20.21;100.00;101394.68;1772545;80;20968;-87
2021/07/27 00:03:45;;;;;;;13.00;5.17;;;;;;;20.16;100.00;101388.73;1750864;81;20943;-82
2021/07/27 00:06:11;;;;;;;14.35;5.03;;;;;;;20.15;100.00;101387.69;1772964;80;20996;-81
2021/07/27 00:08:38;;;;;;;13.10;4.83;;;;;;;20.10;100.00;101385.05;1772281;80;21082;-82
2021/07/27 00:11:09;;;;;;;12.55;4.95;;;;;;;20.08;100.00;101381.80;1772418;80;21109;-82
2021/07/27 00:13:37;;;;;;;13.78;5.00;;;;;;;20.06;100.00;101388.12;1776500;80;21481;-82
2021/07/27 00:16:04;;;;;;;13.45;4.83;;;;;;;20.03;100.00;101386.00;1772401;81;21615;-81
2021/07/27 00:18:31;;;;;;;13.62;4.85;;;;;;;20.01;100.00;101381.41;1771917;81;21012;-80
2021/07/27 00:21:00;;;;;;;10.48;4.45;;;;;;;19.99;100.00;101387.17;1772288;80;21055;-82
2021/07/27 00:23:26;;;;;;;13.45;4.62;;;;;;;19.94;100.00;101385.36;1772272;80;21566;-82
2021/07/27 00:25:52;;;;;;;20.52;4.92;;;;;;;19.92;100.00;101386.21;1772082;80;20842;-80
2021/07/27 00:28:18;;;;;;;15.30;5.40;;;;;;;19.91;100.00;101389.23;1768659;81;21492;-85
2021/07/27 00:30:44;;;;;;;17.52;5.60;;;;;;;19.89;100.00;101393.66;1772483;81;20838;-82
2021/07/27 00:33:10;;;;;;;13.10;4.92;;;;;;;19.88;100.00;101393.95;1772249;80;21020;-80
2021/07/27 00:35:36;;;;;;;11.63;4.95;;;;;;;19.86;100.00;101393.45;1772081;80;21065;-82
2021/07/27 00:38:08;;;;;;;15.18;4.80;;;;;;;19.83;100.00;101389.41;1772317;80;21048;-82
2021/07/27 00:40:40;;;;;;;15.13;4.50;;;;;;;19.81;100.00;101388.08;1771979;80;21000;-82
2021/07/27 00:43:14;;;;;;;8.10;4.23;;;;;;;19.80;100.00;101387.83;1772685;80;20996;-82
2021/07/27 00:45:41;;;;;;;9.63;4.42;;;;;;;19.73;100.00;101384.91;1772311;80;21858;-82
2021/07/27 00:48:07;;;;;;;8.90;4.10;;;;;;;19.69;100.00;101382.53;1772166;81;20996;-82
2021/07/27 00:50:35;;;;;;;11.12;4.50;;;;;;;19.66;100.00;101378.23;1772475;80;21044;-81
2021/07/27 00:53:03;;;;;;;11.80;4.50;;;;;;;19.62;100.00;101375.80;1772371;80;20953;-82
2021/07/27 00:55:30;;;;;;;18.02;4.78;;;;;;;19.60;100.00;101371.20;1772380;80;21036;-85
2021/07/27 00:57:57;;;;;;;9.78;4.15;;;;;;;19.59;100.00;101377.23;1772361;80;21140;-83
2021/07/27 01:00:24;;;;;;;14.70;4.62;;;;;;;19.59;100.00;101375.03;1772079;80;21065;-82
2021/07/27 01:02:50;;;;;;;11.28;4.75;;;;;;;19.57;100.00;101373.18;1772470;81;21879;-86
2021/07/27 01:05:17;;;;;;;10.00;4.25;;;;;;;19.56;100.00;101372.91;1772570;80;21039;-83
2021/07/27 01:07:44;;;;;;;12.95;4.45;;;;;;;19.54;100.00;101371.86;1772401;80;21051;-82
2021/07/27 01:10:13;;;;;;;15.60;4.37;;;;;;;19.52;100.00;101374.88;1772561;80;21126;-82
2021/07/27 01:12:41;;;;;;;16.65;5.00;;;;;;;19.52;100.00;101373.51;1772294;80;20985;-82
2021/07/27 01:15:08;;;;;;;12.10;4.83;;;;;;;19.49;100.00;101378.21;1772112;80;21027;-81
2021/07/27 01:17:35;;;;;;;20.43;4.92;;;;;;;19.47;100.00;101374.98;1772026;80;20985;-82
2021/07/27 01:20:21;;;;;;;11.03;3.85;;;;;;;19.43;100.00;101373.95;1772509;81;21059;-80
2021/07/27 01:39:32;;;;;;;18.55;4.45;;;;;;;19.17;100.00;101370.03;1772212;81;21036;-82
2021/07/27 01:42:06;;;;;;;9.83;4.00;;;;;;;19.15;100.00;101368.14;1768748;81;21035;-82
2021/07/27 01:44:44;;;;;;;12.93;4.45;;;;;;;19.15;100.00;101374.97;1772230;80;21546;-82
2021/07/27 01:47:22;;;;;;;13.60;4.62;;;;;;;19.15;100.00;101372.23;1777160;80;21358;-82
2021/07/27 01:49:49;;;;;;;16.17;5.03;;;;;;;19.14;100.00;101376.09;1777029;80;21122;-85
2021/07/27 01:52:16;;;;;;;13.15;4.53;;;;;;;19.12;100.00;101376.41;1777093;80;20996;-82
2021/07/27 01:54:54;;;;;;;19.27;4.75;;;;;;;19.10;100.00;101379.17;1737531;80;20992;-81
2021/07/27 01:57:22;;;;;;;11.85;4.70;;;;;;;19.09;100.00;101381.63;1776744;80;21042;-81
2021/07/27 01:59:59;;;;;;;14.30;4.78;;;;;;;19.05;100.00;101384.16;1777418;80;21008;-82
2021/07/27 02:02:25;;;;;;;11.40;4.17;;;;;;;19.03;100.00;101383.63;1777202;80;21170;-82
2021/07/27 02:04:54;;;;;;;9.23;4.70;;;;;;;19.00;100.00;101378.76;1751399;80;21535;-81
2021/07/27 02:07:20;;;;;;;9.00;4.37;;;;;;;18.98;100.00;101381.80;1777185;80;21007;-81
2021/07/27 02:09:48;;;;;;;12.78;4.30;;;;;;;18.97;100.00;101382.09;1777160;80;21549;-82
2021/07/27 02:12:18;;;;;;;9.25;3.95;;;;;;;18.95;100.00;101389.79;1776876;80;20995;-82
2021/07/27 02:17:30;;;;;;;14.60;3.95;;;;;;;18.95;100.00;101384.33;1776508;80;21063;-81
2021/07/27 02:19:56;;;;;;;11.45;4.42;;;;;;;18.96;100.00;101385.94;1777004;80;21819;-82
2021/07/27 02:22:22;;;;;;;15.00;4.40;;;;;;;18.96;100.00;101384.57;1776855;80;21118;-82
2021/07/27 02:24:47;;;;;;;14.10;4.55;;;;;;;18.97;100.00;101388.92;1777023;80;20974;-82
2021/07/27 02:27:15;;;;;;;17.40;5.28;;;;;;;18.98;100.00;101383.73;1776976;80;20938;-82
2021/07/27 02:29:41;;;;;;;15.20;4.58;;;;;;;18.99;100.00;101383.98;1751316;80;21545;-82
2021/07/27 02:32:07;;;;;;;9.78;4.42;;;;;;;18.99;100.00;101382.05;1776985;80;20884;-82
2021/07/27 02:34:32;;;;;;;14.05;4.90;;;;;;;18.98;100.00;101379.63;1776981;80;21620;-82
2021/07/27 02:37:00;;;;;;;11.53;4.45;;;;;;;18.98;100.00;101380.44;1772795;80;20975;-87
2021/07/27 02:39:26;;;;;;;15.63;4.83;;;;;;;18.99;100.00;101384.78;1776712;80;22151;-82
2021/07/27 02:41:52;;;;;;;12.93;4.72;;;;;;;19.05;100.00;101381.42;1777150;80;21030;-80
2021/07/27 02:44:18;;;;;;;14.83;4.37;;;;;;;19.10;100.00;101390.10;1777391;80;20864;-82
2021/07/27 02:46:43;;;;;;;12.53;4.72;;;;;;;19.11;100.00;101386.25;1795489;79;20841;-81
2021/07/27 02:49:09;;;;;;;14.80;4.50;;;;;;;19.17;100.00;101391.89;1757123;80;21010;-82
2021/07/27 02:51:35;;;;;;;9.83;4.20;;;;;;;19.21;100.00;101392.94;1778835;80;21048;-82
2021/07/27 02:54:01;;;;;;;13.08;4.92;;;;;;;19.26;100.00;101386.00;1778752;80;20979;-82
2021/07/27 02:56:27;;;;;;;8.90;4.22;;;;;;;19.33;100.00;101389.17;1778723;80;20841;-82
2021/07/27 02:58:53;;;;;;;12.35;4.87;;;;;;;19.39;100.00;101383.88;1755268;80;20998;-82
2021/07/27 03:01:18;;;;;;;13.28;4.87;;;;;;;19.48;100.00;101379.34;1780084;80;20904;-81
2021/07/27 03:03:48;;;;;;;9.28;4.58;;;;;;;19.57;100.00;101378.09;1781239;80;21605;-81
2021/07/27 03:06:16;;;;;;;8.63;4.00;;;;;;;19.65;100.00;101384.83;1781111;80;20991;-81
2021/07/27 03:08:52;;;;;;;11.68;4.20;;;;;;;19.70;100.00;101384.71;1750591;80;21008;-81
2021/07/27 03:11:16;;;;;;;11.43;4.42;;;;;;;19.80;100.00;101387.27;1781357;80;21027;-82
2021/07/27 03:13:43;;;;;;;9.53;4.80;;;;;;;19.91;100.00;101385.13;1759269;80;21549;-85
2021/07/27 03:16:18;;;;;;;20.48;4.92;;;;;;;20.02;100.00;101389.86;1781236;80;21091;-84
2021/07/27 03:18:48;;;;;;;16.42;5.62;;;;;;;20.18;100.00;101391.19;1778182;80;21050;-81
2021/07/27 03:21:18;;;;;;;20.57;5.30;;;;;;;20.31;100.00;101386.80;1780806;80;20991;-81
2021/07/27 03:23:45;;;;;;;18.98;6.17;;;;;;;20.47;100.00;101391.39;1759366;80;20999;-82
2021/07/27 03:26:12;;;;;;;16.42;5.70;;;;;;;20.90;100.00;101391.02;1781263;80;21011;-81
2021/07/27 03:28:39;;;;;;;12.03;4.95;;;;;;;21.55;100.00;101396.80;1781001;80;21064;-82
2021/07/27 03:31:05;;;;;;;12.80;4.53;;;;;;;22.26;100.00;101398.73;1780779;80;21016;-81
2021/07/27 03:33:31;;;;;;;12.60;4.62;;;;;;;22.97;100.00;101398.55;1781360;80;21601;-81
2021/07/27 03:35:57;;;;;;;15.35;4.62;;;;;;;23.57;100.00;101396.24;1781178;80;20932;-82
2021/07/27 03:38:23;;;;;;;12.68;4.70;;;;;;;24.11;100.00;101397.09;1781122;80;21711;-82
2021/07/27 03:40:49;;;;;;;14.63;4.35;;;;;;;24.43;100.00;101395.65;1725504;80;21103;-79
2021/07/27 03:43:15;;;;;;;14.58;4.92;;;;;;;24.87;100.00;101397.51;1781060;80;21027;-82
2021/07/27 03:45:41;;;;;;;15.70;3.90;;;;;;;25.40;99.11;101397.86;1781235;80;21050;-81
2021/07/27 03:48:06;;;;;;;14.93;4.53;;;;;;;25.86;94.41;101397.28;1781245;80;20914;-82
2021/07/27 03:50:32;;;;;;;12.98;4.40;;;;;;;26.39;90.49;101396.00;1781298;80;20861;-81
2021/07/27 03:52:58;;;;;;;13.58;3.92;;;;;;;26.79;83.32;101395.22;1781236;80;20931;-82
2021/07/27 03:55:24;;;;;;;13.45;4.05;;;;;;;27.20;80.65;101387.70;1781084;80;20844;-81
2021/07/27 03:57:53;;;;;;;12.50;5.00;;;;;;;27.51;76.92;101391.92;1781097;80;20912;-82
2021/07/27 04:00:20;;;;;;;18.15;5.30;;;;;;;27.88;74.59;101393.64;1777350;80;20977;-81
2021/07/27 04:02:46;;;;;;;9.78;4.25;;;;;;;28.43;71.80;101387.64;1760892;81;20969;-82
2021/07/27 04:05:12;;;;;;;11.95;4.50;;;;;;;28.84;67.32;101384.74;1760957;81;21086;-80
2021/07/27 04:07:38;;;;;;;11.10;4.85;;;;;;;29.06;65.88;101390.73;1760702;81;21023;-82
2021/07/27 04:10:06;;;;;;;17.67;5.40;;;;;;;29.51;64.94;101391.98;1760796;81;21143;-82
2021/07/27 04:12:35;;;;;;;14.58;4.90;;;;;;;29.95;61.62;101396.53;1760970;81;21515;-81
2021/07/27 04:15:01;;;;;;;18.85;4.45;;;;;;;30.17;59.09;101396.25;1760684;81;21035;-82
2021/07/27 04:17:27;;;;;;;20.72;4.70;;;;;;;30.29;55.65;101401.62;1760805;81;21851;-82
2021/07/27 04:19:53;;;;;;;17.27;4.45;;;;;;;30.25;56.91;101404.16;1766875;81;20830;-81
2021/07/27 04:22:19;;;;;;;9.43;4.30;;;;;;;30.49;55.16;101402.30;1760642;81;20996;-84
2021/07/27 04:24:45;;;;;;;12.65;4.33;;;;;;;30.54;53.04;101406.16;1760785;81;20873;-81
2021/07/27 04:27:11;;;;;;;16.15;4.05;;;;;;;30.81;53.49;101401.16;1761019;81;20870;-82
2021/07/27 04:29:38;;;;;;;8.28;3.90;;;;;;;31.15;52.00;101406.11;1760935;81;21868;-82
2021/07/27 04:32:04;;;;;;;11.20;4.15;;;;;;;31.13;50.07;101412.67;1760959;81;20997;-81
2021/07/27 04:34:30;;;;;;;8.50;3.90;;;;;;;31.08;50.45;101404.66;1760924;81;21049;-80
2021/07/27 04:36:56;;;;;;;10.85;4.10;;;;;;;30.99;49.74;101404.36;1741389;81;21558;-81
2021/07/27 04:39:22;;;;;;;12.47;4.50;;;;;;;31.48;50.17;101401.12;1760736;81;20846;-81
2021/07/27 04:41:48;;;;;;;7.28;3.70;;;;;;;31.80;47.97;101397.23;1760812;81;21014;-82
2021/07/27 04:44:13;;;;;;;11.85;3.40;;;;;;;31.75;46.71;101380.05;1760801;81;20944;-83
2021/07/27 04:46:39;;;;;;;9.63;3.77;;;;;;;31.88;47.28;101410.61;1760870;81;21030;-82
2021/07/27 04:49:05;;;;;;;12.37;3.67;;;;;;;32.41;43.99;101412.98;1760945;80;20853;-83
2021/07/27 04:51:31;;;;;;;14.00;4.00;;;;;;;32.46;43.84;101404.28;1760895;81;21619;-80
2021/07/27 04:54:05;;;;;;;9.38;3.52;;;;;;;32.41;42.22;101399.64;1760766;81;21017;-83
2021/07/27 04:56:32;;;;;;;13.58;4.37;;;;;;;32.34;42.55;101398.41;1754279;81;21076;-82
2021/07/27 04:58:58;;;;;;;13.32;3.67;;;;;;;32.82;42.45;101399.46;1739211;82;21120;-82
2021/07/27 05:01:24;;;;;;;8.60;3.95;;;;;;;33.42;41.95;101395.45;1736276;80;21549;-82
2021/07/27 05:03:50;;;;;;;11.97;4.55;;;;;;;33.67;40.03;101395.48;1776385;80;20952;-87
2021/07/27 05:06:22;;;;;;;11.63;4.37;;;;;;;33.49;39.11;101396.05;1776199;80;21195;-81
2021/07/27 05:08:48;;;;;;;138.30;11.40;;;;;;;33.55;39.08;101397.88;1769163;80;21024;-83
2021/07/27 05:11:14;;;;;;;51.13;7.22;;;;;;;33.65;39.08;101399.30;1776307;80;21000;-83
2021/07/27 05:13:41;;;;;;;12.68;4.97;;;;;;;33.66;38.14;101401.48;1745182;80;20865;-81
2021/07/27 05:16:14;;;;;;;12.98;4.83;;;;;;;33.87;37.79;101401.47;1776113;80;21050;-82
2021/07/27 05:18:40;;;;;;;17.50;4.97;;;;;;;33.90;36.58;101401.27;1753701;80;21081;-82
2021/07/27 05:21:06;;;;;;;14.23;4.87;;;;;;;34.24;36.95;101402.23;1768763;80;21043;-82
2021/07/27 05:23:32;;;;;;;15.25;4.40;;;;;;;34.43;35.82;101404.59;1776502;80;20884;-81
2021/07/27 05:25:57;;;;;;;13.75;4.30;;;;;;;34.56;35.19;101400.20;1776439;80;20976;-82
2021/07/27 05:28:27;;;;;;;15.03;4.62;;;;;;;34.41;35.16;101399.20;1776463;80;20872;-83
2021/07/27 05:30:52;;;;;;;6.85;4.10;;;;;;;34.61;34.30;101405.17;1754402;80;21012;-83
2021/07/27 05:33:18;;;;;;;14.68;4.25;;;;;;;34.51;33.70;101401.19;1772530;80;20919;-83
2021/07/27 05:35:44;;;;;;;13.13;3.80;;;;;;;34.50;33.51;101402.37;1776184;80;20947;-82
2021/07/27 05:38:10;;;;;;;46.63;5.62;;;;;;;34.44;33.79;101401.98;1753259;80;20892;-83
2021/07/27 05:40:36;;;;;;;27.98;4.83;;;;;;;34.75;32.94;101400.91;1776346;80;21050;-81
2021/07/27 05:43:02;;;;;;;25.57;4.60;;;;;;;34.93;32.67;101403.02;1776285;80;20998;-82
2021/07/27 05:45:28;;;;;;;21.33;4.55;;;;;;;34.88;32.18;101400.63;1776284;80;21036;-83
2021/07/27 05:47:54;;;;;;;39.98;4.62;;;;;;;34.92;33.15;101401.43;1776052;80;20907;-83
2021/07/27 05:50:21;;;;;;;13.05;3.72;;;;;;;35.19;32.79;101400.30;1776181;80;21614;-83
2021/07/27 05:52:47;;;;;;;13.78;3.42;;;;;;;35.18;31.80;101400.69;1775980;80;21016;-83
2021/07/27 05:55:14;;;;;;;12.58;3.87;;;;;;;35.37;31.24;101402.18;1776352;80;21184;-83
2021/07/27 05:57:40;;;;;;;21.48;4.30;;;;;;;35.22;30.58;101403.67;1776131;80;21019;-83
2021/07/27 06:00:06;;;;;;;24.00;4.28;;;;;;;35.22;30.58;101403.67;1776329;80;20876;-84
2021/07/27 06:02:33;;;;;;;33.40;4.83;;;;;;;35.19;30.17;101402.30;1780140;80;21039;-88
2021/07/27 06:04:58;;;;;;;23.80;4.30;;;;;;;35.09;30.59;101378.73;1780646;80;21026;-82
2021/07/27 06:07:24;;;;;;;9.58;4.15;;;;;;;35.59;31.35;101395.82;1780659;80;21085;-84
2021/07/27 06:09:50;;;;;;;12.85;4.33;;;;;;;36.25;30.21;101391.42;1780575;80;20983;-85
2021/07/27 06:12:17;;;;;;;20.68;4.35;;;;;;;36.38;29.98;101391.66;1780761;80;20963;-84
2021/07/27 06:14:43;;;;;;;13.65;4.37;;;;;;;36.65;30.27;101397.41;1780640;80;21051;-83
2021/07/27 06:17:12;;;;;;;9.80;3.92;;;;;;;37.11;29.58;101397.39;1780744;80;20975;-82
2021/07/27 06:19:38;;;;;;;10.75;4.70;;;;;;;37.31;29.26;101397.50;1780535;80;21121;-80
2021/07/27 06:22:04;;;;;;;10.45;4.92;;;;;;;37.66;29.00;101394.73;1780353;80;21082;-83
2021/07/27 06:24:30;;;;;;;13.15;5.00;;;;;;;38.06;27.98;101391.23;1780797;80;21160;-81
2021/07/27 06:26:56;;;;;;;10.53;4.42;;;;;;;37.77;27.87;101390.93;1780654;80;20867;-83
2021/07/27 06:29:22;;;;;;;15.70;4.35;;;;;;;37.78;27.68;101386.30;1780567;80;20995;-82
2021/07/27 06:31:48;;;;;;;8.78;4.70;;;;;;;37.48;27.49;101395.66;1785021;80;21080;-81
2021/07/27 06:34:14;;;;;;;9.18;5.28;;;;;;;37.46;27.58;101395.25;1781164;80;20950;-82
2021/07/27 06:36:40;;;;;;;16.70;4.87;;;;;;;37.31;27.88;101396.70;1781228;80;20896;-79
2021/07/27 06:39:06;;;;;;;16.05;4.92;;;;;;;37.57;28.44;101389.48;1781325;80;20951;-82
2021/07/27 06:41:31;;;;;;;10.80;4.87;;;;;;;37.68;27.79;101386.67;1781175;80;21609;-82
2021/07/27 06:43:57;;;;;;;12.23;5.53;;;;;;;37.72;27.22;101388.80;1781298;80;21089;-81
2021/07/27 06:46:23;;;;;;;13.93;5.85;;;;;;;37.97;27.76;101388.98;1780967;80;20892;-81
2021/07/27 06:48:49;;;;;;;21.42;5.67;;;;;;;38.38;27.27;101378.72;1781237;80;21027;-82
2021/07/27 06:51:17;;;;;;;21.70;5.67;;;;;;;38.96;26.85;101385.39;1777033;80;21070;-82
2021/07/27 06:53:44;;;;;;;22.10;6.05;;;;;;;39.41;26.58;101383.95;1709269;84;21527;-85
2021/07/27 06:56:12;;;;;;;29.30;5.50;;;;;;;39.18;25.89;101390.52;1709384;84;21870;-82
2021/07/27 06:58:39;;;;;;;13.13;5.10;;;;;;;38.84;26.34;101384.02;1722282;82;21009;-81
2021/07/27 07:01:09;;;;;;;26.97;5.40;;;;;;;39.11;26.27;101390.08;1725377;80;21034;-82
2021/07/27 07:03:43;;;;;;;11.28;5.55;;;;;;;39.23;26.89;101385.16;1737141;82;20984;-85
2021/07/27 07:06:11;;;;;;;24.18;5.12;;;;;;;39.46;25.83;101377.79;1750680;82;21071;-82
2021/07/27 07:08:38;;;;;;;14.93;5.30;;;;;;;39.74;25.53;101381.33;1750312;82;21123;-83
2021/07/27 07:11:05;;;;;;;14.45;5.17;;;;;;;39.76;25.03;101380.87;1750460;81;20980;-85
2021/07/27 07:13:32;;;;;;;12.53;4.30;;;;;;;39.92;25.83;101377.23;1750624;82;21072;-82
2021/07/27 07:15:59;;;;;;;16.48;5.15;;;;;;;39.56;25.03;101382.36;1750600;82;21012;-82
2021/07/27 07:18:25;;;;;;;11.22;4.53;;;;;;;39.04;25.55;101375.55;1750801;81;20984;-83
2021/07/27 07:20:52;;;;;;;8.88;4.37;;;;;;;39.17;25.38;101383.30;1750594;82;21063;-81
2021/07/27 07:23:19;;;;;;;12.13;4.55;;;;;;;38.98;25.79;101377.92;1750534;82;21016;-83
2021/07/27 07:25:46;;;;;;;13.50;4.60;;;;;;;39.15;25.69;101379.53;1750399;82;21572;-82
2021/07/27 07:28:14;;;;;;;17.85;3.90;;;;;;;39.61;26.15;101376.19;1750249;82;21059;-80
2021/07/27 07:30:40;;;;;;;9.43;4.28;;;;;;;40.39;24.87;101372.51;1750228;82;21071;-82
2021/07/27 07:33:06;;;;;;;18.30;4.20;;;;;;;40.17;24.71;101373.70;1750512;81;21052;-82
2021/07/27 07:35:32;;;;;;;23.62;5.30;;;;;;;40.17;24.83;101375.91;1750473;81;21673;-79
2021/07/27 07:37:58;;;;;;;14.95;4.10;;;;;;;40.17;25.31;101377.94;1749488;82;21563;-82
2021/07/27 07:40:24;;;;;;;8.68;3.87;;;;;;;40.08;24.96;101375.76;1750880;80;20951;-84
2021/07/27 07:42:50;;;;;;;16.27;4.35;;;;;;;40.45;25.09;101376.96;1750639;82;21736;-85
2021/07/27 07:45:16;;;;;;;16.97;4.70;;;;;;;40.81;25.43;101377.51;1750626;82;21162;-82
2021/07/27 07:47:43;;;;;;;7.55;4.20;;;;;;;41.41;24.32;101378.85;1750476;82;20952;-80
2021/07/27 07:50:11;;;;;;;7.12;4.17;;;;;;;41.73;24.31;101382.03;1749760;82;21059;-83
2021/07/27 07:52:37;;;;;;;10.43;3.95;;;;;;;41.93;22.86;101382.55;1750262;82;21699;-83
2021/07/27 07:55:04;;;;;;;11.80;3.87;;;;;;;41.86;23.53;101380.55;1750119;82;20915;-82
2021/07/27 07:57:34;;;;;;;13.90;4.62;;;;;;;42.58;22.56;101374.52;1750270;82;21726;-84
2021/07/27 08:00:02;;;;;;;12.82;4.60;;;;;;;42.44;22.43;101374.43;1754696;81;21612;-83
2021/07/27 08:02:28;;;;;;;17.98;4.30;;;;;;;41.86;23.34;101381.38;1778276;80;21086;-80
2021/07/27 08:04:54;;;;;;;12.05;5.03;;;;;;;42.61;22.68;101372.95;1786234;80;21031;-78
2021/07/27 08:07:21;;;;;;;9.53;4.90;;;;;;;42.88;21.62;101376.56;1786240;80;21040;-80
2021/07/27 08:09:47;;;;;;;10.72;5.25;;;;;;;42.24;22.49;101378.20;1785978;80;21118;-78
2021/07/27 08:12:17;;;;;;;13.80;5.00;;;;;;;42.53;22.23;101375.11;1757431;80;20952;-77
2021/07/27 08:14:44;;;;;;;11.20;5.65;;;;;;;42.27;22.25;101370.19;1786163;80;21020;-81
2021/07/27 08:17:12;;;;;;;31.15;5.90;;;;;;;42.66;22.37;101374.41;1785794;80;20885;-84
2021/07/27 08:19:39;;;;;;;10.88;5.83;;;;;;;42.40;22.18;101371.73;1683159;84;21684;-81
2021/07/27 08:22:05;;;;;;;8.15;5.60;;;;;;;42.01;22.02;101377.43;1703851;83;21601;-81
2021/07/27 08:24:33;;;;;;;13.75;5.70;;;;;;;41.70;22.60;101373.82;1711956;83;21031;-81
2021/07/27 08:27:00;;;;;;;11.22;4.83;;;;;;;42.04;22.61;101370.84;1711769;83;21027;-84
2021/07/27 08:29:26;;;;;;;9.20;5.67;;;;;;;42.74;22.41;101370.67;1712220;83;21015;-81
2021/07/27 08:31:52;;;;;;;20.60;5.90;;;;;;;42.48;21.64;101368.62;1712038;83;21117;-87
2021/07/27 08:34:18;;;;;;;11.93;5.25;;;;;;;42.41;21.70;101368.27;1712076;83;21083;-81
2021/07/27 08:36:47;;;;;;;11.30;5.05;;;;;;;41.47;22.16;101376.43;1711802;83;21539;-77
2021/07/27 08:39:15;;;;;;;15.00;5.03;;;;;;;41.33;22.94;101369.83;1712004;83;21078;-81
2021/07/27 08:41:45;;;;;;;12.68;4.53;;;;;;;41.02;22.44;101364.73;1711828;83;21035;-76
2021/07/27 08:44:19;;;;;;;13.10;5.58;;;;;;;40.38;23.25;101366.67;1710664;83;20971;-78
2021/07/27 08:46:47;;;;;;;12.82;5.03;;;;;;;40.30;23.21;101365.28;1711988;83;21031;-80
2021/07/27 08:49:16;;;;;;;18.23;5.05;;;;;;;40.40;24.04;101368.44;1711716;83;21067;-81
2021/07/27 08:51:43;;;;;;;14.93;4.65;;;;;;;41.26;23.83;101368.64;1711743;83;21011;-80
2021/07/27 08:54:10;;;;;;;7.95;3.95;;;;;;;41.55;23.49;101369.13;1741544;82;21083;-84
2021/07/27 08:56:49;;;;;;;9.00;4.62;;;;;;;41.58;23.40;101371.83;1741351;82;21563;-80
2021/07/27 08:59:17;;;;;;;12.60;4.55;;;;;;;42.34;23.41;101362.89;1714463;81;21050;-78
2021/07/27 09:01:43;;;;;;;8.50;4.35;;;;;;;43.27;21.92;101368.54;1751976;81;21054;-81
2021/07/27 09:04:11;;;;;;;8.58;3.77;;;;;;;43.06;22.22;101365.91;1735425;82;21031;-84
2021/07/27 09:06:37;;;;;;;12.43;4.08;;;;;;;42.34;22.07;101362.89;1743404;82;21113;-77
2021/07/27 09:09:08;;;;;;;11.40;4.05;;;;;;;42.34;22.68;101363.67;1742833;82;21098;-81
2021/07/27 09:11:49;;;;;;;;;;;;;;;41.94;21.87;101365.71;1711293;84;21251;-82
2021/07/27 09:14:17;;;;;;;16.45;3.52;;;;;;;41.42;22.87;101362.06;1613924;87;20334;-82
2021/07/27 09:16:46;;;;;;;18.17;3.92;;;;;;;41.69;23.01;101365.80;1614281;88;21030;-82
2021/07/27 09:19:13;;;;;;;8.05;3.20;;;;;;;41.66;22.13;101353.98;1537532;93;21094;-83
2021/07/27 09:21:46;;;;;;;10.10;3.55;;;;;;;40.84;22.89;101352.57;1537636;92;21086;-81
2021/07/27 09:24:25;;;;;;;7.05;3.55;;;;;;;40.63;23.59;101343.36;1538880;91;21148;-83
2021/07/27 09:27:08;;;;;;;7.85;3.67;;;;;;;40.81;23.58;101349.23;1574633;91;21093;-83
2021/07/27 09:29:46;;;;;;;5.28;3.30;;;;;;;40.65;23.70;101347.91;1487683;95;21014;-82
2021/07/27 09:32:20;;;;;;;15.55;4.05;;;;;;;40.60;23.70;101341.41;1487704;96;21153;-84
2021/07/27 09:34:47;;;;;;;8.18;3.47;;;;;;;40.39;23.36;101340.80;1466123;97;21133;-84
2021/07/27 09:37:14;;;;;;;11.80;4.10;;;;;;;39.80;24.67;101347.71;1467955;96;21211;-84
2021/07/27 09:39:41;;;;;;;10.80;4.00;;;;;;;40.01;24.74;101346.32;1467458;97;21184;-84
2021/07/27 09:42:09;;;;;;;11.88;3.80;;;;;;;39.91;24.70;101338.30;1467669;97;21728;-84
2021/07/27 09:44:39;;;;;;;11.05;3.90;;;;;;;40.08;23.75;101340.46;1467991;97;21060;-85
2021/07/27 09:47:06;;;;;;;10.03;3.45;;;;;;;40.39;23.57;101341.43;1469019;97;21085;-84
2021/07/27 09:49:32;;;;;;;7.70;3.67;;;;;;;40.20;23.81;101336.12;1480119;95;22360;-90
2021/07/27 09:51:59;;;;;;;10.75;3.80;;;;;;;39.79;24.40;101343.91;1429473;99;21263;-84
2021/07/27 09:54:27;;;;;;;13.15;3.50;;;;;;;39.56;24.75;101337.83;1480240;96;21034;-83
2021/07/27 09:56:55;;;;;;;10.98;3.47;;;;;;;38.85;25.12;101334.89;1446947;99;21140;-82
2021/07/27 09:59:23;;;;;;;6.80;3.35;;;;;;;38.92;25.51;101333.95;1479809;96;21130;-83
2021/07/27 10:02:04;;;;;;;8.73;3.47;;;;;;;38.77;24.70;101332.05;1446800;98;21614;-84
2021/07/27 10:04:37;;;;;;;7.78;3.30;;;;;;;38.81;25.36;101329.14;1468283;97;21155;-84
2021/07/27 10:07:03;;;;;;;9.30;2.95;;;;;;;38.98;25.20;101329.99;1456855;98;21492;-82
2021/07/27 10:09:33;;;;;;;9.70;3.12;;;;;;;38.78;25.33;101327.98;1462949;97;21120;-84
2021/07/27 10:12:13;;;;;;;17.62;4.20;;;;;;;38.39;26.03;101331.66;1441610;99;21550;-89
2021/07/27 10:14:44;;;;;;;9.73;3.27;;;;;;;38.58;25.08;101328.66;1421786;98;21216;-89
2021/07/27 10:17:12;;;;;;;11.00;2.92;;;;;;;38.35;25.51;101328.11;1469054;97;21111;-87
2021/07/27 10:19:52;;;;;;;14.10;3.05;;;;;;;38.05;25.16;101327.11;1442373;99;21220;-85
2021/07/27 10:22:19;;;;;;;15.08;3.47;;;;;;;37.99;25.77;101323.83;1444496;98;21272;-81
2021/07/27 10:24:48;;;;;;;8.83;2.87;;;;;;;37.91;26.03;101321.72;1443115;99;21086;-83
2021/07/27 10:27:29;;;;;;;5.80;2.87;;;;;;;38.17;25.86;101323.64;1491197;94;21208;-80
2021/07/27 10:30:10;;;;;;;8.85;3.02;;;;;;;37.84;25.47;101323.28;1558149;90;21037;-81
2021/07/27 10:32:36;;;;;;;17.05;3.40;;;;;;;37.80;25.92;101307.87;1547888;92;21093;-81
2021/07/27 10:35:29;;;;;;;5.90;3.20;;;;;;;38.03;26.42;101314.69;1527623;94;20946;-78
2021/07/27 10:38:10;;;;;;;10.50;3.02;;;;;;;37.71;26.82;101314.07;1527388;93;21789;-80
2021/07/27 10:40:36;;;;;;;6.95;3.05;;;;;;;37.68;26.53;101309.89;1527922;94;21298;-80
2021/07/27 10:43:07;;;;;;;15.35;3.37;;;;;;;37.77;26.62;101301.70;1540921;91;21060;-80
2021/07/27 10:45:34;;;;;;;4.65;2.50;;;;;;;37.85;26.30;101303.75;1555272;92;21093;-81
2021/07/27 10:48:00;;;;;;;15.18;3.17;;;;;;;38.02;26.51;101301.84;1550547;91;21096;-85
2021/07/27 10:50:31;;;;;;;11.83;2.90;;;;;;;38.44;26.14;101299.38;1537416;93;21157;-79
2021/07/27 10:53:10;;;;;;;7.97;2.65;;;;;;;38.54;26.29;101296.96;1507752;94;21132;-80
2021/07/27 10:55:42;;;;;;;10.63;2.80;;;;;;;38.61;25.72;101301.80;1416121;101;21133;-80
2021/07/27 10:58:20;;;;;;;8.60;2.90;;;;;;;38.45;25.30;101297.55;1416689;99;21157;-80
2021/07/27 11:00:45;;;;;;;7.62;2.95;;;;;;;38.00;25.66;101291.63;1464206;97;21105;-80
2021/07/27 11:03:11;;;;;;;8.63;2.50;;;;;;;37.98;25.68;101290.67;1483060;96;21481;-79
2021/07/27 11:05:37;;;;;;;7.47;2.60;;;;;;;38.08;25.51;101286.04;1489102;96;21206;-80
2021/07/27 11:08:04;;;;;;;11.68;2.80;;;;;;;37.59;25.53;101280.91;1488618;96;20929;-79
2021/07/27 11:10:30;;;;;;;7.15;3.45;;;;;;;37.31;26.31;101277.99;1477228;96;21092;-78
2021/07/27 11:12:58;;;;;;;10.58;3.40;;;;;;;37.11;26.17;101279.94;1488505;96;21148;-79
2021/07/27 11:15:27;;;;;;;8.40;3.00;;;;;;;37.25;27.23;101275.48;1489537;94;21168;-80
2021/07/27 11:18:00;;;;;;;8.05;3.10;;;;;;;37.58;25.67;101276.52;1480185;97;21534;-78
2021/07/27 11:20:35;;;;;;;12.05;2.62;;;;;;;37.76;26.17;101271.96;1479780;97;28411;-82
2021/07/27 11:23:10;;;;;;;5.95;2.80;;;;;;;37.76;26.17;101271.96;1458872;97;21134;-81
2021/07/27 11:25:36;;;;;;;8.30;2.75;;;;;;;37.64;25.78;101271.98;1457596;97;21138;-81
2021/07/27 11:28:11;;;;;;;7.33;3.50;;;;;;;37.61;25.35;101266.44;1456308;98;20968;-83
2021/07/27 11:30:38;;;;;;;4.05;2.95;;;;;;;37.66;24.64;101263.92;1472578;97;21197;-80
2021/07/27 11:33:19;;;;;;;8.75;3.30;;;;;;;37.37;25.41;101265.03;1467786;97;21439;-81
2021/07/27 11:35:49;;;;;;;5.45;3.20;;;;;;;37.46;24.57;101267.28;1425834;99;21149;-80
2021/07/27 11:38:33;;;;;;;7.92;3.67;;;;;;;37.62;24.03;101265.20;1382146;103;21215;-80
2021/07/27 11:41:12;;;;;;;5.67;2.90;;;;;;;37.93;24.39;101263.81;1381914;103;21588;-80